sensor_id;sensor_type;location;lat;lon;timestamp;P1;durP1;ratioP1;P2;durP2;ratioP2
33188;SDS011;52601;53.070;10.600;2022-10-23T00:03:23;4.78;;;2.28;;
33188;SDS011;52601;53.070;10.600;2022-10-23T00:11:09;4.30;;;1.83;;
33188;SDS011;52601;53.070;10.600;2022-10-23T00:14:52;2.35;;;1.63;;
33188;SDS011;52601;53.070;10.600;2022-10-23T00:18:29;5.22;;;1.65;;
33188;SDS011;52601;53.070;10.600;2022-10-23T00:26:04;2.65;;;1.60;;
33188;SDS011;52601;53.070;10.600;2022-10-23T00:33:25;3.28;;;1.83;;
33188;SDS011;52601;53.070;10.600;2022-10-23T00:36:54;5.20;;;1.90;;
33188;SDS011;52601;53.070;10.600;2022-10-23T00:40:25;6.68;;;2.22;;
33188;SDS011;52601;53.070;10.600;2022-10-23T00:44:01;3.22;;;1.55;;
33188;SDS011;52601;53.070;10.600;2022-10-23T00:55:16;7.60;;;1.70;;
33188;SDS011;52601;53.070;10.600;2022-10-23T01:02:58;2.20;;;1.40;;
33188;SDS011;52601;53.070;10.600;2022-10-23T01:10:13;4.70;;;1.95;;
33188;SDS011;52601;53.070;10.600;2022-10-23T01:20:47;4.78;;;1.98;;
33188;SDS011;52601;53.070;10.600;2022-10-23T01:24:34;5.32;;;2.22;;
33188;SDS011;52601;53.070;10.600;2022-10-23T01:28:13;4.57;;;2.07;;
33188;SDS011;52601;53.070;10.600;2022-10-23T01:32:08;5.20;;;1.90;;
33188;SDS011;52601;53.070;10.600;2022-10-23T01:35:59;4.10;;;2.00;;
33188;SDS011;52601;53.070;10.600;2022-10-23T01:46:59;22.83;;;3.33;;
33188;SDS011;52601;53.070;10.600;2022-10-23T01:50:37;5.25;;;2.30;;
33188;SDS011;52601;53.070;10.600;2022-10-23T01:54:08;3.78;;;1.90;;
33188;SDS011;52601;53.070;10.600;2022-10-23T01:58:09;5.50;;;2.33;;
33188;SDS011;52601;53.070;10.600;2022-10-23T02:01:24;2.70;;;1.63;;
33188;SDS011;52601;53.070;10.600;2022-10-23T02:05:02;3.10;;;2.10;;
33188;SDS011;52601;53.070;10.600;2022-10-23T02:20:05;3.75;;;2.03;;
33188;SDS011;52601;53.070;10.600;2022-10-23T02:23:51;4.40;;;1.70;;
33188;SDS011;52601;53.070;10.600;2022-10-23T02:27:20;6.55;;;2.10;;
33188;SDS011;52601;53.070;10.600;2022-10-23T02:30:40;3.33;;;1.80;;
33188;SDS011;52601;53.070;10.600;2022-10-23T02:34:00;7.35;;;1.90;;
33188;SDS011;52601;53.070;10.600;2022-10-23T02:37:36;3.60;;;1.67;;
33188;SDS011;52601;53.070;10.600;2022-10-23T02:41:28;5.30;;;2.25;;
33188;SDS011;52601;53.070;10.600;2022-10-23T02:45:11;3.47;;;2.00;;
33188;SDS011;52601;53.070;10.600;2022-10-23T03:00:53;12.95;;;1.70;;
33188;SDS011;52601;53.070;10.600;2022-10-23T03:08:25;3.08;;;1.70;;
33188;SDS011;52601;53.070;10.600;2022-10-23T03:15:42;3.17;;;1.75;;
33188;SDS011;52601;53.070;10.600;2022-10-23T03:19:12;4.18;;;1.83;;
33188;SDS011;52601;53.070;10.600;2022-10-23T03:34:11;8.00;;;2.10;;
33188;SDS011;52601;53.070;10.600;2022-10-23T04:57:34;4.30;;;1.50;;
33188;SDS011;52601;53.070;10.600;2022-10-23T05:15:48;3.03;;;1.55;;
33188;SDS011;52601;53.070;10.600;2022-10-23T05:23:04;1.83;;;1.37;;
33188;SDS011;52601;53.070;10.600;2022-10-23T05:26:30;2.10;;;1.40;;
33188;SDS011;52601;53.070;10.600;2022-10-23T05:37:38;3.22;;;1.55;;
33188;SDS011;52601;53.070;10.600;2022-10-23T05:41:08;3.20;;;1.90;;
33188;SDS011;52601;53.070;10.600;2022-10-23T06:22:34;2.58;;;1.58;;
33188;SDS011;52601;53.070;10.600;2022-10-23T06:25:21;2.28;;;1.38;;
33188;SDS011;52601;53.070;10.600;2022-10-23T06:28:28;1.98;;;1.23;;
33188;SDS011;52601;53.070;10.600;2022-10-23T06:31:15;1.67;;;1.30;;
33188;SDS011;52601;53.070;10.600;2022-10-23T06:34:05;3.38;;;1.70;;
33188;SDS011;52601;53.070;10.600;2022-10-23T06:36:50;2.57;;;1.57;;
33188;SDS011;52601;53.070;10.600;2022-10-23T06:39:36;2.28;;;1.80;;
33188;SDS011;52601;53.070;10.600;2022-10-23T06:42:41;3.05;;;1.63;;
33188;SDS011;52601;53.070;10.600;2022-10-23T06:45:30;2.60;;;1.30;;
33188;SDS011;52601;53.070;10.600;2022-10-23T06:48:28;2.45;;;1.45;;
33188;SDS011;52601;53.070;10.600;2022-10-23T06:51:21;3.60;;;1.70;;
33188;SDS011;52601;53.070;10.600;2022-10-23T06:54:19;3.27;;;2.23;;
33188;SDS011;52601;53.070;10.600;2022-10-23T06:57:07;2.95;;;1.38;;
33188;SDS011;52601;53.070;10.600;2022-10-23T07:00:16;4.57;;;1.40;;
33188;SDS011;52601;53.070;10.600;2022-10-23T07:03:04;4.35;;;1.90;;
33188;SDS011;52601;53.070;10.600;2022-10-23T07:06:07;2.20;;;1.40;;
33188;SDS011;52601;53.070;10.600;2022-10-23T07:09:00;6.28;;;1.60;;
33188;SDS011;52601;53.070;10.600;2022-10-23T07:12:16;5.43;;;1.50;;
33188;SDS011;52601;53.070;10.600;2022-10-23T07:15:11;1.80;;;1.45;;
33188;SDS011;52601;53.070;10.600;2022-10-23T07:18:03;3.53;;;1.65;;
33188;SDS011;52601;53.070;10.600;2022-10-23T07:21:03;3.73;;;1.57;;
33188;SDS011;52601;53.070;10.600;2022-10-23T07:23:55;3.87;;;1.90;;
33188;SDS011;52601;53.070;10.600;2022-10-23T07:26:50;4.40;;;1.40;;
33188;SDS011;52601;53.070;10.600;2022-10-23T07:29:42;2.83;;;1.45;;
33188;SDS011;52601;53.070;10.600;2022-10-23T07:32:31;2.95;;;1.20;;
33188;SDS011;52601;53.070;10.600;2022-10-23T07:35:27;4.15;;;1.65;;
33188;SDS011;52601;53.070;10.600;2022-10-23T07:38:35;2.38;;;1.50;;
33188;SDS011;52601;53.070;10.600;2022-10-23T07:41:21;2.83;;;1.58;;
33188;SDS011;52601;53.070;10.600;2022-10-23T07:44:07;4.15;;;1.50;;
33188;SDS011;52601;53.070;10.600;2022-10-23T07:46:56;2.40;;;1.42;;
33188;SDS011;52601;53.070;10.600;2022-10-23T07:49:42;3.03;;;1.40;;
33188;SDS011;52601;53.070;10.600;2022-10-23T07:52:36;2.10;;;1.50;;
33188;SDS011;52601;53.070;10.600;2022-10-23T07:55:23;3.67;;;1.53;;
33188;SDS011;52601;53.070;10.600;2022-10-23T07:58:10;2.97;;;1.38;;
33188;SDS011;52601;53.070;10.600;2022-10-23T08:01:00;3.40;;;1.40;;
33188;SDS011;52601;53.070;10.600;2022-10-23T08:03:47;1.55;;;1.10;;
33188;SDS011;52601;53.070;10.600;2022-10-23T08:07:35;2.30;;;1.30;;
33188;SDS011;52601;53.070;10.600;2022-10-23T08:11:03;2.05;;;1.33;;
33188;SDS011;52601;53.070;10.600;2022-10-23T08:22:34;6.72;;;1.40;;
33188;SDS011;52601;53.070;10.600;2022-10-23T08:26:04;4.70;;;1.52;;
33188;SDS011;52601;53.070;10.600;2022-10-23T08:37:31;3.70;;;2.00;;
33188;SDS011;52601;53.070;10.600;2022-10-23T08:47:40;7.00;;;2.00;;
33188;SDS011;52601;53.070;10.600;2022-10-23T08:50:41;2.97;;;1.70;;
33188;SDS011;52601;53.070;10.600;2022-10-23T08:53:39;3.20;;;1.70;;
33188;SDS011;52601;53.070;10.600;2022-10-23T08:56:32;3.10;;;1.52;;
33188;SDS011;52601;53.070;10.600;2022-10-23T08:59:28;3.03;;;1.48;;
33188;SDS011;52601;53.070;10.600;2022-10-23T09:02:37;3.95;;;1.88;;
33188;SDS011;52601;53.070;10.600;2022-10-23T09:08:33;3.97;;;1.85;;
33188;SDS011;52601;53.070;10.600;2022-10-23T09:11:38;2.50;;;1.60;;
33188;SDS011;52601;53.070;10.600;2022-10-23T09:15:02;3.10;;;1.77;;
33188;SDS011;52601;53.070;10.600;2022-10-23T09:18:11;4.03;;;1.98;;
33188;SDS011;52601;53.070;10.600;2022-10-23T09:20:59;4.15;;;1.90;;
33188;SDS011;52601;53.070;10.600;2022-10-23T09:23:45;3.50;;;1.70;;
33188;SDS011;52601;53.070;10.600;2022-10-23T09:26:30;8.83;;;1.97;;
33188;SDS011;52601;53.070;10.600;2022-10-23T09:29:23;3.78;;;1.95;;
33188;SDS011;52601;53.070;10.600;2022-10-23T09:32:11;5.32;;;1.90;;
33188;SDS011;52601;53.070;10.600;2022-10-23T09:34:57;2.13;;;1.55;;
33188;SDS011;52601;53.070;10.600;2022-10-23T09:37:44;2.80;;;1.58;;
33188;SDS011;52601;53.070;10.600;2022-10-23T09:40:38;1.98;;;1.27;;
33188;SDS011;52601;53.070;10.600;2022-10-23T09:43:29;4.95;;;1.88;;
33188;SDS011;52601;53.070;10.600;2022-10-23T09:46:15;2.80;;;1.00;;
33188;SDS011;52601;53.070;10.600;2022-10-23T09:49:02;2.47;;;1.00;;
33188;SDS011;52601;53.070;10.600;2022-10-23T09:51:52;4.72;;;1.00;;
33188;SDS011;52601;53.070;10.600;2022-10-23T09:55:17;4.67;;;1.60;;
33188;SDS011;52601;53.070;10.600;2022-10-23T09:58:18;2.40;;;0.80;;
33188;SDS011;52601;53.070;10.600;2022-10-23T10:01:26;2.60;;;1.20;;
33188;SDS011;52601;53.070;10.600;2022-10-23T10:04:15;4.03;;;1.30;;
33188;SDS011;52601;53.070;10.600;2022-10-23T10:07:06;2.78;;;0.95;;
33188;SDS011;52601;53.070;10.600;2022-10-23T10:10:06;2.50;;;1.40;;
33188;SDS011;52601;53.070;10.600;2022-10-23T10:13:00;2.20;;;1.30;;
33188;SDS011;52601;53.070;10.600;2022-10-23T10:16:06;1.48;;;0.88;;
33188;SDS011;52601;53.070;10.600;2022-10-23T10:28:52;1.92;;;0.65;;
33188;SDS011;52601;53.070;10.600;2022-10-23T10:36:18;1.65;;;0.73;;
33188;SDS011;52601;53.070;10.600;2022-10-23T10:38:50;4.03;;;1.20;;
33188;SDS011;52601;53.070;10.600;2022-10-23T10:48:19;1.17;;;0.83;;
33188;SDS011;52601;53.070;10.600;2022-10-23T10:51:07;4.33;;;1.10;;
33188;SDS011;52601;53.070;10.600;2022-10-23T10:54:17;1.00;;;0.70;;
33188;SDS011;52601;53.070;10.600;2022-10-23T10:57:31;2.90;;;1.15;;
33188;SDS011;52601;53.070;10.600;2022-10-23T11:00:21;1.63;;;0.80;;
33188;SDS011;52601;53.070;10.600;2022-10-23T11:06:25;3.13;;;0.90;;
33188;SDS011;52601;53.070;10.600;2022-10-23T11:09:20;1.98;;;1.00;;
33188;SDS011;52601;53.070;10.600;2022-10-23T11:12:16;2.78;;;0.98;;
33188;SDS011;52601;53.070;10.600;2022-10-23T11:15:10;4.25;;;1.27;;
33188;SDS011;52601;53.070;10.600;2022-10-23T11:18:02;3.00;;;1.10;;
33188;SDS011;52601;53.070;10.600;2022-10-23T11:24:32;2.58;;;1.02;;
33188;SDS011;52601;53.070;10.600;2022-10-23T11:31:04;1.47;;;0.87;;
33188;SDS011;52601;53.070;10.600;2022-10-23T11:34:07;2.60;;;0.80;;
33188;SDS011;52601;53.070;10.600;2022-10-23T11:37:07;2.92;;;0.73;;
33188;SDS011;52601;53.070;10.600;2022-10-23T11:42:50;3.88;;;0.88;;
33188;SDS011;52601;53.070;10.600;2022-10-23T11:45:37;3.47;;;1.05;;
33188;SDS011;52601;53.070;10.600;2022-10-23T11:48:40;2.22;;;1.00;;
33188;SDS011;52601;53.070;10.600;2022-10-23T11:54:19;2.08;;;0.90;;
33188;SDS011;52601;53.070;10.600;2022-10-23T11:57:10;6.20;;;1.00;;
33188;SDS011;52601;53.070;10.600;2022-10-23T11:59:59;2.45;;;0.98;;
33188;SDS011;52601;53.070;10.600;2022-10-23T12:02:48;3.97;;;0.85;;
33188;SDS011;52601;53.070;10.600;2022-10-23T12:05:42;2.67;;;1.08;;
33188;SDS011;52601;53.070;10.600;2022-10-23T12:08:30;3.55;;;0.80;;
33188;SDS011;52601;53.070;10.600;2022-10-23T12:11:23;3.08;;;0.75;;
33188;SDS011;52601;53.070;10.600;2022-10-23T12:17:32;2.13;;;0.93;;
33188;SDS011;52601;53.070;10.600;2022-10-23T12:20:28;2.72;;;1.23;;
33188;SDS011;52601;53.070;10.600;2022-10-23T12:29:33;3.80;;;1.30;;
33188;SDS011;52601;53.070;10.600;2022-10-23T12:32:39;1.80;;;0.90;;
33188;SDS011;52601;53.070;10.600;2022-10-23T12:35:46;2.95;;;0.90;;
33188;SDS011;52601;53.070;10.600;2022-10-23T12:38:45;3.03;;;0.98;;
33188;SDS011;52601;53.070;10.600;2022-10-23T12:41:33;1.42;;;0.70;;
33188;SDS011;52601;53.070;10.600;2022-10-23T12:44:23;1.55;;;0.85;;
33188;SDS011;52601;53.070;10.600;2022-10-23T12:47:10;2.83;;;1.10;;
33188;SDS011;52601;53.070;10.600;2022-10-23T12:50:01;1.92;;;1.10;;
33188;SDS011;52601;53.070;10.600;2022-10-23T12:52:55;1.50;;;1.03;;
33188;SDS011;52601;53.070;10.600;2022-10-23T12:55:58;2.40;;;1.10;;
33188;SDS011;52601;53.070;10.600;2022-10-23T12:58:53;2.83;;;0.90;;
33188;SDS011;52601;53.070;10.600;2022-10-23T13:01:41;2.03;;;1.07;;
33188;SDS011;52601;53.070;10.600;2022-10-23T13:04:29;1.63;;;1.05;;
33188;SDS011;52601;53.070;10.600;2022-10-23T13:07:20;5.40;;;1.20;;
33188;SDS011;52601;53.070;10.600;2022-10-23T13:10:12;1.60;;;1.10;;
33188;SDS011;52601;53.070;10.600;2022-10-23T13:13:02;2.13;;;1.08;;
33188;SDS011;52601;53.070;10.600;2022-10-23T13:15:50;2.50;;;0.75;;
33188;SDS011;52601;53.070;10.600;2022-10-23T13:18:39;2.20;;;0.90;;
33188;SDS011;52601;53.070;10.600;2022-10-23T13:21:36;2.03;;;1.13;;
33188;SDS011;52601;53.070;10.600;2022-10-23T13:24:33;3.88;;;1.10;;
33188;SDS011;52601;53.070;10.600;2022-10-23T13:30:38;2.50;;;1.30;;
33188;SDS011;52601;53.070;10.600;2022-10-23T13:33:45;3.00;;;1.02;;
33188;SDS011;52601;53.070;10.600;2022-10-23T13:37:00;3.35;;;1.30;;
33188;SDS011;52601;53.070;10.600;2022-10-23T13:44:10;3.25;;;1.17;;
33188;SDS011;52601;53.070;10.600;2022-10-23T13:47:10;2.60;;;1.05;;
33188;SDS011;52601;53.070;10.600;2022-10-23T13:50:02;4.13;;;1.00;;
33188;SDS011;52601;53.070;10.600;2022-10-23T13:52:58;3.45;;;0.95;;
33188;SDS011;52601;53.070;10.600;2022-10-23T13:55:47;4.45;;;1.48;;
33188;SDS011;52601;53.070;10.600;2022-10-23T13:58:58;3.10;;;1.10;;
33188;SDS011;52601;53.070;10.600;2022-10-23T14:01:59;2.20;;;1.30;;
33188;SDS011;52601;53.070;10.600;2022-10-23T14:04:47;1.30;;;0.82;;
33188;SDS011;52601;53.070;10.600;2022-10-23T14:07:38;2.73;;;0.97;;
33188;SDS011;52601;53.070;10.600;2022-10-23T14:10:31;1.20;;;0.80;;
33188;SDS011;52601;53.070;10.600;2022-10-23T14:13:17;1.60;;;0.85;;
33188;SDS011;52601;53.070;10.600;2022-10-23T14:16:16;4.78;;;1.10;;
33188;SDS011;52601;53.070;10.600;2022-10-23T14:19:04;1.85;;;0.95;;
33188;SDS011;52601;53.070;10.600;2022-10-23T14:21:50;2.20;;;0.70;;
33188;SDS011;52601;53.070;10.600;2022-10-23T14:24:35;3.13;;;1.30;;
33188;SDS011;52601;53.070;10.600;2022-10-23T14:27:20;2.70;;;1.05;;
33188;SDS011;52601;53.070;10.600;2022-10-23T14:30:06;2.03;;;0.90;;
33188;SDS011;52601;53.070;10.600;2022-10-23T14:32:55;2.53;;;1.23;;
33188;SDS011;52601;53.070;10.600;2022-10-23T14:35:41;5.47;;;1.40;;
33188;SDS011;52601;53.070;10.600;2022-10-23T14:38:27;4.60;;;0.90;;
33188;SDS011;52601;53.070;10.600;2022-10-23T14:41:16;1.63;;;0.95;;
33188;SDS011;52601;53.070;10.600;2022-10-23T14:44:02;2.47;;;1.00;;
33188;SDS011;52601;53.070;10.600;2022-10-23T14:46:48;2.70;;;1.10;;
33188;SDS011;52601;53.070;10.600;2022-10-23T14:49:37;2.03;;;0.90;;
33188;SDS011;52601;53.070;10.600;2022-10-23T14:52:24;2.17;;;1.17;;
33188;SDS011;52601;53.070;10.600;2022-10-23T14:55:11;5.82;;;1.25;;
33188;SDS011;52601;53.070;10.600;2022-10-23T14:58:00;3.38;;;0.80;;
33188;SDS011;52601;53.070;10.600;2022-10-23T15:00:55;2.78;;;1.00;;
33188;SDS011;52601;53.070;10.600;2022-10-23T15:03:47;5.10;;;1.20;;
33188;SDS011;52601;53.070;10.600;2022-10-23T15:06:38;2.72;;;1.05;;
33188;SDS011;52601;53.070;10.600;2022-10-23T15:09:24;2.87;;;1.17;;
33188;SDS011;52601;53.070;10.600;2022-10-23T15:12:10;2.40;;;0.90;;
33188;SDS011;52601;53.070;10.600;2022-10-23T15:14:58;2.55;;;0.95;;
33188;SDS011;52601;53.070;10.600;2022-10-23T15:17:45;2.43;;;0.80;;
33188;SDS011;52601;53.070;10.600;2022-10-23T15:20:31;1.95;;;1.00;;
33188;SDS011;52601;53.070;10.600;2022-10-23T15:23:16;5.63;;;1.47;;
33188;SDS011;52601;53.070;10.600;2022-10-23T15:26:03;8.50;;;1.87;;
33188;SDS011;52601;53.070;10.600;2022-10-23T15:28:55;4.25;;;1.50;;
33188;SDS011;52601;53.070;10.600;2022-10-23T15:34:33;3.38;;;1.13;;
33188;SDS011;52601;53.070;10.600;2022-10-23T15:37:18;2.70;;;1.30;;
33188;SDS011;52601;53.070;10.600;2022-10-23T15:40:07;4.28;;;1.40;;
33188;SDS011;52601;53.070;10.600;2022-10-23T15:42:53;2.38;;;1.25;;
33188;SDS011;52601;53.070;10.600;2022-10-23T15:45:39;4.45;;;1.15;;
33188;SDS011;52601;53.070;10.600;2022-10-23T15:48:25;5.07;;;2.27;;
33188;SDS011;52601;53.070;10.600;2022-10-23T15:51:11;4.93;;;1.60;;
33188;SDS011;52601;53.070;10.600;2022-10-23T15:53:56;6.53;;;2.92;;
33188;SDS011;52601;53.070;10.600;2022-10-23T15:56:43;2.97;;;1.27;;
33188;SDS011;52601;53.070;10.600;2022-10-23T15:59:35;2.22;;;1.30;;
33188;SDS011;52601;53.070;10.600;2022-10-23T16:02:22;1.63;;;0.90;;
33188;SDS011;52601;53.070;10.600;2022-10-23T16:05:08;3.60;;;0.95;;
33188;SDS011;52601;53.070;10.600;2022-10-23T16:07:54;3.70;;;1.10;;
33188;SDS011;52601;53.070;10.600;2022-10-23T16:10:41;4.80;;;1.70;;
33188;SDS011;52601;53.070;10.600;2022-10-23T16:13:27;3.28;;;1.70;;
33188;SDS011;52601;53.070;10.600;2022-10-23T16:16:16;1.67;;;1.05;;
33188;SDS011;52601;53.070;10.600;2022-10-23T16:19:02;2.70;;;1.17;;
33188;SDS011;52601;53.070;10.600;2022-10-23T16:21:48;2.88;;;1.40;;
33188;SDS011;52601;53.070;10.600;2022-10-23T16:24:34;4.35;;;1.70;;
33188;SDS011;52601;53.070;10.600;2022-10-23T16:27:19;1.52;;;0.85;;
33188;SDS011;52601;53.070;10.600;2022-10-23T16:30:05;4.05;;;1.33;;
33188;SDS011;52601;53.070;10.600;2022-10-23T16:32:53;3.30;;;1.17;;
33188;SDS011;52601;53.070;10.600;2022-10-23T16:35:39;2.90;;;1.15;;
33188;SDS011;52601;53.070;10.600;2022-10-23T16:38:25;2.50;;;1.20;;
33188;SDS011;52601;53.070;10.600;2022-10-23T16:41:10;2.90;;;0.90;;
33188;SDS011;52601;53.070;10.600;2022-10-23T16:43:56;2.80;;;1.20;;
33188;SDS011;52601;53.070;10.600;2022-10-23T16:46:44;3.15;;;1.20;;
33188;SDS011;52601;53.070;10.600;2022-10-23T16:49:29;2.65;;;1.10;;
33188;SDS011;52601;53.070;10.600;2022-10-23T16:52:16;4.57;;;1.20;;
33188;SDS011;52601;53.070;10.600;2022-10-23T16:55:02;3.30;;;1.00;;
33188;SDS011;52601;53.070;10.600;2022-10-23T16:57:47;3.20;;;1.10;;
33188;SDS011;52601;53.070;10.600;2022-10-23T17:00:33;1.42;;;0.80;;
33188;SDS011;52601;53.070;10.600;2022-10-23T17:03:19;3.42;;;0.98;;
33188;SDS011;52601;53.070;10.600;2022-10-23T17:06:06;1.88;;;1.20;;
33188;SDS011;52601;53.070;10.600;2022-10-23T17:08:56;2.00;;;0.90;;
33188;SDS011;52601;53.070;10.600;2022-10-23T17:11:43;2.90;;;1.02;;
33188;SDS011;52601;53.070;10.600;2022-10-23T17:14:29;4.60;;;1.45;;
33188;SDS011;52601;53.070;10.600;2022-10-23T17:17:14;2.05;;;1.00;;
33188;SDS011;52601;53.070;10.600;2022-10-23T17:20:00;2.88;;;1.00;;
33188;SDS011;52601;53.070;10.600;2022-10-23T17:22:45;3.97;;;2.03;;
33188;SDS011;52601;53.070;10.600;2022-10-23T17:25:31;1.15;;;0.88;;
33188;SDS011;52601;53.070;10.600;2022-10-23T17:28:16;2.78;;;1.23;;
33188;SDS011;52601;53.070;10.600;2022-10-23T17:31:02;3.30;;;1.20;;
33188;SDS011;52601;53.070;10.600;2022-10-23T17:33:49;4.33;;;1.10;;
33188;SDS011;52601;53.070;10.600;2022-10-23T17:36:37;1.45;;;1.00;;
33188;SDS011;52601;53.070;10.600;2022-10-23T17:39:27;3.03;;;1.13;;
33188;SDS011;52601;53.070;10.600;2022-10-23T17:42:16;2.25;;;1.00;;
33188;SDS011;52601;53.070;10.600;2022-10-23T17:45:01;1.77;;;1.17;;
33188;SDS011;52601;53.070;10.600;2022-10-23T17:47:47;1.67;;;1.00;;
33188;SDS011;52601;53.070;10.600;2022-10-23T17:50:32;4.05;;;1.02;;
33188;SDS011;52601;53.070;10.600;2022-10-23T17:53:20;3.40;;;0.80;;
33188;SDS011;52601;53.070;10.600;2022-10-23T17:56:13;3.47;;;1.20;;
33188;SDS011;52601;53.070;10.600;2022-10-23T17:59:05;1.35;;;0.85;;
33188;SDS011;52601;53.070;10.600;2022-10-23T18:01:52;3.17;;;1.30;;
33188;SDS011;52601;53.070;10.600;2022-10-23T18:04:37;1.77;;;1.10;;
33188;SDS011;52601;53.070;10.600;2022-10-23T18:07:26;1.65;;;1.23;;
33188;SDS011;52601;53.070;10.600;2022-10-23T18:10:14;2.67;;;1.33;;
33188;SDS011;52601;53.070;10.600;2022-10-23T18:13:03;5.85;;;1.10;;
33188;SDS011;52601;53.070;10.600;2022-10-23T18:15:48;3.33;;;1.55;;
33188;SDS011;52601;53.070;10.600;2022-10-23T18:18:35;2.50;;;1.50;;
33188;SDS011;52601;53.070;10.600;2022-10-23T18:21:22;6.72;;;1.70;;
33188;SDS011;52601;53.070;10.600;2022-10-23T18:24:14;4.25;;;1.05;;
33188;SDS011;52601;53.070;10.600;2022-10-23T18:27:02;2.90;;;1.10;;
33188;SDS011;52601;53.070;10.600;2022-10-23T18:29:49;4.32;;;0.95;;
33188;SDS011;52601;53.070;10.600;2022-10-23T18:32:35;3.17;;;1.20;;
33188;SDS011;52601;53.070;10.600;2022-10-23T18:35:22;1.40;;;0.90;;
33188;SDS011;52601;53.070;10.600;2022-10-23T18:38:10;2.65;;;0.90;;
33188;SDS011;52601;53.070;10.600;2022-10-23T18:40:57;1.25;;;0.98;;
33188;SDS011;52601;53.070;10.600;2022-10-23T18:43:43;3.03;;;1.30;;
33188;SDS011;52601;53.070;10.600;2022-10-23T18:46:30;3.80;;;1.10;;
33188;SDS011;52601;53.070;10.600;2022-10-23T18:49:18;3.38;;;1.33;;
33188;SDS011;52601;53.070;10.600;2022-10-23T18:52:04;3.72;;;1.10;;
33188;SDS011;52601;53.070;10.600;2022-10-23T18:54:50;2.58;;;1.10;;
33188;SDS011;52601;53.070;10.600;2022-10-23T18:57:36;5.53;;;1.42;;
33188;SDS011;52601;53.070;10.600;2022-10-23T19:00:22;1.75;;;0.85;;
33188;SDS011;52601;53.070;10.600;2022-10-23T19:03:09;1.45;;;1.00;;
33188;SDS011;52601;53.070;10.600;2022-10-23T19:06:00;1.88;;;0.98;;
33188;SDS011;52601;53.070;10.600;2022-10-23T19:08:46;5.05;;;1.10;;
33188;SDS011;52601;53.070;10.600;2022-10-23T19:11:32;2.40;;;1.15;;
33188;SDS011;52601;53.070;10.600;2022-10-23T19:14:19;1.83;;;1.10;;
33188;SDS011;52601;53.070;10.600;2022-10-23T19:17:07;4.47;;;1.42;;
33188;SDS011;52601;53.070;10.600;2022-10-23T19:19:59;4.97;;;1.67;;
33188;SDS011;52601;53.070;10.600;2022-10-23T19:22:51;5.90;;;1.30;;
33188;SDS011;52601;53.070;10.600;2022-10-23T19:25:43;3.50;;;1.20;;
33188;SDS011;52601;53.070;10.600;2022-10-23T19:28:30;2.40;;;1.10;;
33188;SDS011;52601;53.070;10.600;2022-10-23T19:31:22;2.00;;;1.20;;
33188;SDS011;52601;53.070;10.600;2022-10-23T19:34:11;1.30;;;0.80;;
33188;SDS011;52601;53.070;10.600;2022-10-23T19:36:57;2.30;;;1.00;;
33188;SDS011;52601;53.070;10.600;2022-10-23T19:39:42;3.13;;;1.10;;
33188;SDS011;52601;53.070;10.600;2022-10-23T19:42:32;1.90;;;1.00;;
33188;SDS011;52601;53.070;10.600;2022-10-23T19:45:23;1.37;;;0.80;;
33188;SDS011;52601;53.070;10.600;2022-10-23T19:48:13;3.15;;;1.25;;
33188;SDS011;52601;53.070;10.600;2022-10-23T19:51:01;2.00;;;0.90;;
33188;SDS011;52601;53.070;10.600;2022-10-23T19:53:47;3.90;;;1.00;;
33188;SDS011;52601;53.070;10.600;2022-10-23T19:56:42;3.65;;;1.17;;
33188;SDS011;52601;53.070;10.600;2022-10-23T19:59:28;1.77;;;1.08;;
33188;SDS011;52601;53.070;10.600;2022-10-23T20:02:13;1.48;;;1.10;;
33188;SDS011;52601;53.070;10.600;2022-10-23T20:05:05;1.38;;;0.98;;
33188;SDS011;52601;53.070;10.600;2022-10-23T20:07:53;2.00;;;1.00;;
33188;SDS011;52601;53.070;10.600;2022-10-23T20:10:41;2.60;;;0.90;;
33188;SDS011;52601;53.070;10.600;2022-10-23T20:13:29;2.03;;;1.08;;
33188;SDS011;52601;53.070;10.600;2022-10-23T20:16:18;2.60;;;1.27;;
33188;SDS011;52601;53.070;10.600;2022-10-23T20:19:10;2.03;;;1.10;;
33188;SDS011;52601;53.070;10.600;2022-10-23T20:21:58;2.55;;;1.00;;
33188;SDS011;52601;53.070;10.600;2022-10-23T20:24:49;3.65;;;1.10;;
33188;SDS011;52601;53.070;10.600;2022-10-23T20:27:39;1.92;;;0.80;;
33188;SDS011;52601;53.070;10.600;2022-10-23T20:30:24;2.00;;;0.85;;
33188;SDS011;52601;53.070;10.600;2022-10-23T20:33:10;3.55;;;1.08;;
33188;SDS011;52601;53.070;10.600;2022-10-23T20:36:02;1.70;;;1.30;;
33188;SDS011;52601;53.070;10.600;2022-10-23T20:38:52;1.25;;;0.95;;
33188;SDS011;52601;53.070;10.600;2022-10-23T20:41:42;1.70;;;0.90;;
33188;SDS011;52601;53.070;10.600;2022-10-23T20:44:29;1.45;;;0.93;;
33188;SDS011;52601;53.070;10.600;2022-10-23T20:47:16;2.80;;;1.10;;
33188;SDS011;52601;53.070;10.600;2022-10-23T20:50:02;1.30;;;0.80;;
33188;SDS011;52601;53.070;10.600;2022-10-23T20:52:48;1.87;;;1.10;;
33188;SDS011;52601;53.070;10.600;2022-10-23T20:55:41;2.63;;;0.98;;
33188;SDS011;52601;53.070;10.600;2022-10-23T20:58:29;0.90;;;0.77;;
33188;SDS011;52601;53.070;10.600;2022-10-23T21:01:17;1.70;;;1.10;;
33188;SDS011;52601;53.070;10.600;2022-10-23T21:04:03;1.60;;;1.00;;
33188;SDS011;52601;53.070;10.600;2022-10-23T21:06:54;3.80;;;1.02;;
33188;SDS011;52601;53.070;10.600;2022-10-23T21:09:54;1.95;;;1.02;;
33188;SDS011;52601;53.070;10.600;2022-10-23T21:12:41;1.57;;;0.80;;
33188;SDS011;52601;53.070;10.600;2022-10-23T21:15:27;2.23;;;0.77;;
33188;SDS011;52601;53.070;10.600;2022-10-23T21:18:13;2.90;;;0.90;;
33188;SDS011;52601;53.070;10.600;2022-10-23T21:21:21;1.15;;;0.70;;
33188;SDS011;52601;53.070;10.600;2022-10-23T21:24:20;4.15;;;1.00;;
33188;SDS011;52601;53.070;10.600;2022-10-23T21:27:10;2.65;;;1.10;;
33188;SDS011;52601;53.070;10.600;2022-10-23T21:29:57;2.53;;;0.85;;
33188;SDS011;52601;53.070;10.600;2022-10-23T21:32:56;8.52;;;1.08;;
33188;SDS011;52601;53.070;10.600;2022-10-23T21:35:43;1.67;;;0.80;;
33188;SDS011;52601;53.070;10.600;2022-10-23T21:38:52;1.50;;;1.33;;
33188;SDS011;52601;53.070;10.600;2022-10-23T21:41:45;3.78;;;0.80;;
33188;SDS011;52601;53.070;10.600;2022-10-23T21:44:33;2.28;;;0.90;;
33188;SDS011;52601;53.070;10.600;2022-10-23T21:47:21;2.80;;;0.97;;
33188;SDS011;52601;53.070;10.600;2022-10-23T21:50:07;3.60;;;1.08;;
33188;SDS011;52601;53.070;10.600;2022-10-23T21:52:55;1.40;;;0.85;;
33188;SDS011;52601;53.070;10.600;2022-10-23T21:55:46;3.17;;;0.82;;
33188;SDS011;52601;53.070;10.600;2022-10-23T21:58:40;3.00;;;1.30;;
33188;SDS011;52601;53.070;10.600;2022-10-23T22:01:27;1.55;;;1.00;;
33188;SDS011;52601;53.070;10.600;2022-10-23T22:04:17;3.67;;;1.05;;
33188;SDS011;52601;53.070;10.600;2022-10-23T22:07:06;1.92;;;1.00;;
33188;SDS011;52601;53.070;10.600;2022-10-23T22:10:03;3.35;;;1.05;;
33188;SDS011;52601;53.070;10.600;2022-10-23T22:12:49;2.72;;;1.10;;
33188;SDS011;52601;53.070;10.600;2022-10-23T22:15:36;2.00;;;1.08;;
33188;SDS011;52601;53.070;10.600;2022-10-23T22:18:29;2.22;;;1.10;;
33188;SDS011;52601;53.070;10.600;2022-10-23T22:21:19;2.17;;;1.17;;
33188;SDS011;52601;53.070;10.600;2022-10-23T22:24:18;3.05;;;1.23;;
33188;SDS011;52601;53.070;10.600;2022-10-23T22:27:06;2.40;;;1.13;;
33188;SDS011;52601;53.070;10.600;2022-10-23T22:30:01;6.38;;;1.45;;
33188;SDS011;52601;53.070;10.600;2022-10-23T22:32:47;2.83;;;1.20;;
33188;SDS011;52601;53.070;10.600;2022-10-23T22:35:35;2.05;;;1.10;;
33188;SDS011;52601;53.070;10.600;2022-10-23T22:38:25;2.92;;;1.10;;
33188;SDS011;52601;53.070;10.600;2022-10-23T22:41:18;1.73;;;0.95;;